Terminal Aerodrome Forecast
Issued by NWS Mt. Holly, NJ

Home | Current Version | Previous Version | Text Only | Print | Product List | Glossary On
Versions: 1 2 3 4 5 6 7 8 9 10 11 12 13 14 15 16 17 18 19 20 21 22 23 24 25 26 27 28 29 30 31 32 33 34 35
000
FTUS41 KPHI 262030 AAA
TAFPHL
TAF AMD
KPHL 262030Z 2621/2724 30012KT P6SM FEW050 BKN250
     FM270000 33007KT P6SM BKN250
     FM270500 01005KT P6SM SCT250
     FM271200 02005KT P6SM BKN200
     FM271600 33008KT P6SM FEW050 BKN200
     FM271800 28008KT P6SM SCT060 BKN150=

USA.gov is the U.S. government's official web portal to all federal, state and local government web resources and services.